sensor_id;sensor_type;location;lat;lon;timestamp;pressure;altitude;pressure_sealevel;temperature;humidity
76337;BME280;65157;50.082;18.178;2023-03-12T00:01:40;98749.63;;;-1.21;73.94
76337;BME280;65157;50.082;18.178;2023-03-12T00:04:06;98754.31;;;-1.22;73.90
76337;BME280;65157;50.082;18.178;2023-03-12T00:06:32;98756.40;;;-1.25;73.75
76337;BME280;65157;50.082;18.178;2023-03-12T00:08:58;98758.30;;;-1.27;73.84
76337;BME280;65157;50.082;18.178;2023-03-12T00:11:24;98761.25;;;-1.29;73.88
76337;BME280;65157;50.082;18.178;2023-03-12T00:13:55;98768.70;;;-1.29;73.81
76337;BME280;65157;50.082;18.178;2023-03-12T00:16:23;98768.89;;;-1.30;73.72
76337;BME280;65157;50.082;18.178;2023-03-12T00:18:51;98768.19;;;-1.33;73.77
76337;BME280;65157;50.082;18.178;2023-03-12T00:21:21;98767.86;;;-1.34;74.01
76337;BME280;65157;50.082;18.178;2023-03-12T00:23:48;98767.51;;;-1.35;73.93
76337;BME280;65157;50.082;18.178;2023-03-12T00:26:15;98768.21;;;-1.36;73.95
76337;BME280;65157;50.082;18.178;2023-03-12T00:28:41;98766.81;;;-1.40;74.11
76337;BME280;65157;50.082;18.178;2023-03-12T00:31:23;98769.95;;;-1.42;74.32
76337;BME280;65157;50.082;18.178;2023-03-12T00:33:54;98770.47;;;-1.42;74.35
76337;BME280;65157;50.082;18.178;2023-03-12T00:36:23;98772.72;;;-1.43;74.07
76337;BME280;65157;50.082;18.178;2023-03-12T00:38:50;98775.14;;;-1.44;74.45
76337;BME280;65157;50.082;18.178;2023-03-12T00:41:17;98776.52;;;-1.46;74.46
76337;BME280;65157;50.082;18.178;2023-03-12T00:43:43;98773.42;;;-1.47;74.30
76337;BME280;65157;50.082;18.178;2023-03-12T00:46:09;98779.14;;;-1.48;74.47
76337;BME280;65157;50.082;18.178;2023-03-12T00:48:35;98786.40;;;-1.49;74.35
76337;BME280;65157;50.082;18.178;2023-03-12T00:51:04;98788.65;;;-1.50;74.46
76337;BME280;65157;50.082;18.178;2023-03-12T00:53:30;98786.92;;;-1.55;74.47
76337;BME280;65157;50.082;18.178;2023-03-12T00:55:56;98789.52;;;-1.52;74.41
76337;BME280;65157;50.082;18.178;2023-03-12T00:58:22;98785.55;;;-1.54;74.37
76337;BME280;65157;50.082;18.178;2023-03-12T01:00:48;98787.27;;;-1.56;74.36
76337;BME280;65157;50.082;18.178;2023-03-12T01:03:15;98790.58;;;-1.57;75.03
76337;BME280;65157;50.082;18.178;2023-03-12T01:05:41;98785.02;;;-1.62;75.29
76337;BME280;65157;50.082;18.178;2023-03-12T01:08:08;98784.52;;;-1.68;75.33
76337;BME280;65157;50.082;18.178;2023-03-12T01:10:39;98777.27;;;-1.74;75.39
76337;BME280;65157;50.082;18.178;2023-03-12T01:13:06;98781.42;;;-1.72;75.23
76337;BME280;65157;50.082;18.178;2023-03-12T01:15:33;98782.62;;;-1.74;75.28
76337;BME280;65157;50.082;18.178;2023-03-12T01:17:59;98784.53;;;-1.75;75.29
76337;BME280;65157;50.082;18.178;2023-03-12T01:20:25;98778.30;;;-1.77;75.36
76337;BME280;65157;50.082;18.178;2023-03-12T01:22:51;98781.06;;;-1.79;75.36
76337;BME280;65157;50.082;18.178;2023-03-12T01:25:17;98783.84;;;-1.80;75.38
76337;BME280;65157;50.082;18.178;2023-03-12T01:27:43;98780.71;;;-1.82;75.66
76337;BME280;65157;50.082;18.178;2023-03-12T01:30:10;98772.08;;;-1.86;75.39
76337;BME280;65157;50.082;18.178;2023-03-12T01:32:36;98776.07;;;-1.89;75.38
76337;BME280;65157;50.082;18.178;2023-03-12T01:35:02;98776.23;;;-1.92;75.31
76337;BME280;65157;50.082;18.178;2023-03-12T01:37:28;98774.34;;;-1.94;75.09
76337;BME280;65157;50.082;18.178;2023-03-12T01:39:54;98770.88;;;-1.95;75.23
76337;BME280;65157;50.082;18.178;2023-03-12T01:42:20;98772.60;;;-2.00;75.09
76337;BME280;65157;50.082;18.178;2023-03-12T01:44:55;98777.11;;;-1.98;75.06
76337;BME280;65157;50.082;18.178;2023-03-12T01:47:22;98779.87;;;-1.99;75.02
76337;BME280;65157;50.082;18.178;2023-03-12T01:49:50;98782.48;;;-2.01;74.87
76337;BME280;65157;50.082;18.178;2023-03-12T01:52:22;98776.23;;;-2.07;74.86
76337;BME280;65157;50.082;18.178;2023-03-12T01:55:06;98785.06;;;-2.04;75.09
76337;BME280;65157;50.082;18.178;2023-03-12T01:57:37;98781.06;;;-2.14;74.90
76337;BME280;65157;50.082;18.178;2023-03-12T02:00:17;98796.45;;;-2.08;75.12
76337;BME280;65157;50.082;18.178;2023-03-12T02:02:45;98796.80;;;-2.15;75.11
76337;BME280;65157;50.082;18.178;2023-03-12T02:05:36;98806.48;;;-2.12;74.93
76337;BME280;65157;50.082;18.178;2023-03-12T02:08:04;98809.93;;;-2.17;74.96
76337;BME280;65157;50.082;18.178;2023-03-12T02:10:31;98820.66;;;-2.15;75.08
76337;BME280;65157;50.082;18.178;2023-03-12T02:12:57;98822.20;;;-2.17;74.90
76337;BME280;65157;50.082;18.178;2023-03-12T02:15:23;98822.72;;;-2.20;74.85
76337;BME280;65157;50.082;18.178;2023-03-12T02:17:49;98827.39;;;-2.22;74.88
76337;BME280;65157;50.082;18.178;2023-03-12T02:20:22;98829.63;;;-2.26;74.89
76337;BME280;65157;50.082;18.178;2023-03-12T02:22:56;98816.98;;;-2.40;74.83
76337;BME280;65157;50.082;18.178;2023-03-12T02:25:34;98836.52;;;-2.33;74.92
76337;BME280;65157;50.082;18.178;2023-03-12T02:28:04;98838.76;;;-2.41;75.03
76337;BME280;65157;50.082;18.178;2023-03-12T02:30:31;98847.58;;;-2.39;75.14
76337;BME280;65157;50.082;18.178;2023-03-12T02:33:05;98843.93;;;-2.42;75.12
76337;BME280;65157;50.082;18.178;2023-03-12T02:35:31;98843.06;;;-2.45;75.16
76337;BME280;65157;50.082;18.178;2023-03-12T02:38:22;98843.41;;;-2.47;75.14
76337;BME280;65157;50.082;18.178;2023-03-12T02:40:49;98843.20;;;-2.54;75.39
76337;BME280;65157;50.082;18.178;2023-03-12T02:43:17;98845.10;;;-2.59;75.22
76337;BME280;65157;50.082;18.178;2023-03-12T02:45:45;98850.80;;;-2.58;75.24
76337;BME280;65157;50.082;18.178;2023-03-12T02:48:11;98852.52;;;-2.61;75.13
76337;BME280;65157;50.082;18.178;2023-03-12T02:50:37;98855.45;;;-2.62;75.26
76337;BME280;65157;50.082;18.178;2023-03-12T02:53:03;98854.93;;;-2.62;75.02
76337;BME280;65157;50.082;18.178;2023-03-12T02:55:29;98855.95;;;-2.63;75.05
76337;BME280;65157;50.082;18.178;2023-03-12T02:57:55;98857.85;;;-2.64;74.89
76337;BME280;65157;50.082;18.178;2023-03-12T03:00:21;98858.88;;;-2.65;74.78
76337;BME280;65157;50.082;18.178;2023-03-12T03:02:53;98858.69;;;-2.71;74.92
76337;BME280;65157;50.082;18.178;2023-03-12T03:05:22;98873.05;;;-2.67;75.04
76337;BME280;65157;50.082;18.178;2023-03-12T03:07:48;98878.92;;;-2.67;75.27
76337;BME280;65157;50.082;18.178;2023-03-12T03:10:14;98883.59;;;-2.68;75.21
76337;BME280;65157;50.082;18.178;2023-03-12T03:12:40;98885.80;;;-2.70;75.26
76337;BME280;65157;50.082;18.178;2023-03-12T03:15:09;98889.26;;;-2.71;75.29
76337;BME280;65157;50.082;18.178;2023-03-12T03:17:36;98889.44;;;-2.71;75.20
76337;BME280;65157;50.082;18.178;2023-03-12T03:20:03;98890.30;;;-2.71;75.19
76337;BME280;65157;50.082;18.178;2023-03-12T03:22:29;98891.67;;;-2.70;75.14
76337;BME280;65157;50.082;18.178;2023-03-12T03:24:55;98893.05;;;-2.70;75.03
76337;BME280;65157;50.082;18.178;2023-03-12T03:27:21;98898.41;;;-2.72;75.07
76337;BME280;65157;50.082;18.178;2023-03-12T03:29:47;98898.75;;;-2.72;75.21
76337;BME280;65157;50.082;18.178;2023-03-12T03:32:13;98901.17;;;-2.73;75.10
76337;BME280;65157;50.082;18.178;2023-03-12T03:34:39;98905.30;;;-2.74;75.15
76337;BME280;65157;50.082;18.178;2023-03-12T03:37:05;98904.61;;;-2.74;75.03
76337;BME280;65157;50.082;18.178;2023-03-12T03:39:32;98908.74;;;-2.75;75.12
76337;BME280;65157;50.082;18.178;2023-03-12T03:41:57;98908.23;;;-2.78;75.04
76337;BME280;65157;50.082;18.178;2023-03-12T03:44:23;98907.52;;;-2.80;75.00
76337;BME280;65157;50.082;18.178;2023-03-12T03:46:49;98912.19;;;-2.80;75.10
76337;BME280;65157;50.082;18.178;2023-03-12T03:49:16;98912.19;;;-2.80;75.06
76337;BME280;65157;50.082;18.178;2023-03-12T03:51:44;98912.34;;;-2.81;75.06
76337;BME280;65157;50.082;18.178;2023-03-12T03:54:11;98908.88;;;-2.84;75.00
76337;BME280;65157;50.082;18.178;2023-03-12T03:56:38;98910.60;;;-2.86;75.06
76337;BME280;65157;50.082;18.178;2023-03-12T03:59:04;98907.63;;;-2.90;74.89
76337;BME280;65157;50.082;18.178;2023-03-12T04:01:30;98911.61;;;-2.87;74.93
76337;BME280;65157;50.082;18.178;2023-03-12T04:03:57;98913.00;;;-2.88;74.74
76337;BME280;65157;50.082;18.178;2023-03-12T04:06:23;98912.30;;;-2.87;74.87
76337;BME280;65157;50.082;18.178;2023-03-12T04:08:49;98913.35;;;-2.87;74.92
76337;BME280;65157;50.082;18.178;2023-03-12T04:11:18;98915.08;;;-2.86;74.83
76337;BME280;65157;50.082;18.178;2023-03-12T04:13:47;98912.16;;;-2.86;75.05
76337;BME280;65157;50.082;18.178;2023-03-12T04:16:14;98909.40;;;-2.85;74.80
76337;BME280;65157;50.082;18.178;2023-03-12T04:18:41;98909.21;;;-2.87;74.57
76337;BME280;65157;50.082;18.178;2023-03-12T04:21:09;98913.87;;;-2.86;74.62
76337;BME280;65157;50.082;18.178;2023-03-12T04:23:38;98921.47;;;-2.87;74.71
76337;BME280;65157;50.082;18.178;2023-03-12T04:26:05;98905.51;;;-3.00;74.56
76337;BME280;65157;50.082;18.178;2023-03-12T04:28:32;98930.09;;;-2.89;74.87
76337;BME280;65157;50.082;18.178;2023-03-12T04:31:00;98928.35;;;-2.91;74.86
76337;BME280;65157;50.082;18.178;2023-03-12T04:33:32;98930.08;;;-2.92;74.68
76337;BME280;65157;50.082;18.178;2023-03-12T04:36:00;98937.31;;;-2.92;74.95
76337;BME280;65157;50.082;18.178;2023-03-12T04:38:27;98936.80;;;-2.93;74.87
76337;BME280;65157;50.082;18.178;2023-03-12T04:41:13;98940.23;;;-2.95;75.04
76337;BME280;65157;50.082;18.178;2023-03-12T04:43:39;98942.64;;;-2.97;74.99
76337;BME280;65157;50.082;18.178;2023-03-12T04:46:06;98950.05;;;-2.99;74.91
76337;BME280;65157;50.082;18.178;2023-03-12T04:48:33;98945.73;;;-3.00;75.00
76337;BME280;65157;50.082;18.178;2023-03-12T04:51:00;98942.11;;;-3.00;75.06
76337;BME280;65157;50.082;18.178;2023-03-12T04:53:26;98947.45;;;-3.00;75.07
76337;BME280;65157;50.082;18.178;2023-03-12T04:55:52;98945.56;;;-2.99;75.26
76337;BME280;65157;50.082;18.178;2023-03-12T04:58:19;98939.67;;;-3.03;75.10
76337;BME280;65157;50.082;18.178;2023-03-12T05:00:46;98951.27;;;-2.98;75.12
76337;BME280;65157;50.082;18.178;2023-03-12T05:03:13;98948.16;;;-2.98;75.05
76337;BME280;65157;50.082;18.178;2023-03-12T05:05:39;98934.81;;;-3.08;75.13
76337;BME280;65157;50.082;18.178;2023-03-12T05:08:05;98941.94;;;-3.00;75.12
76337;BME280;65157;50.082;18.178;2023-03-12T05:10:31;98947.29;;;-3.00;75.03
76337;BME280;65157;50.082;18.178;2023-03-12T05:12:57;98950.23;;;-2.99;75.09
76337;BME280;65157;50.082;18.178;2023-03-12T05:15:24;98946.43;;;-2.99;75.08
76337;BME280;65157;50.082;18.178;2023-03-12T05:17:50;98952.30;;;-2.99;75.21
76337;BME280;65157;50.082;18.178;2023-03-12T05:20:17;98955.24;;;-2.99;75.27
76337;BME280;65157;50.082;18.178;2023-03-12T05:22:44;98957.65;;;-2.98;75.33
76337;BME280;65157;50.082;18.178;2023-03-12T05:25:11;98968.20;;;-2.97;75.22
76337;BME280;65157;50.082;18.178;2023-03-12T05:27:39;98962.96;;;-3.04;75.13
76337;BME280;65157;50.082;18.178;2023-03-12T05:30:06;98974.23;;;-2.99;75.07
76337;BME280;65157;50.082;18.178;2023-03-12T05:32:32;98984.75;;;-2.98;75.12
76337;BME280;65157;50.082;18.178;2023-03-12T05:34:58;98983.71;;;-2.98;75.17
76337;BME280;65157;50.082;18.178;2023-03-12T05:37:33;98985.28;;;-2.98;75.37
76337;BME280;65157;50.082;18.178;2023-03-12T05:39:59;98984.27;;;-2.96;75.29
76337;BME280;65157;50.082;18.178;2023-03-12T05:42:25;98986.35;;;-2.94;75.22
76337;BME280;65157;50.082;18.178;2023-03-12T05:44:51;98991.73;;;-2.92;75.14
76337;BME280;65157;50.082;18.178;2023-03-12T05:47:18;98997.09;;;-2.89;75.03
76337;BME280;65157;50.082;18.178;2023-03-12T05:49:44;98999.17;;;-2.86;74.99
76337;BME280;65157;50.082;18.178;2023-03-12T05:52:10;98993.83;;;-2.86;75.03
76337;BME280;65157;50.082;18.178;2023-03-12T05:54:36;99000.94;;;-2.81;75.04
76337;BME280;65157;50.082;18.178;2023-03-12T05:57:02;99007.01;;;-2.78;74.89
76337;BME280;65157;50.082;18.178;2023-03-12T05:59:29;99014.80;;;-2.74;74.88
76337;BME280;65157;50.082;18.178;2023-03-12T06:01:55;99013.46;;;-2.68;74.87
76337;BME280;65157;50.082;18.178;2023-03-12T06:04:24;99019.04;;;-2.61;74.69
76337;BME280;65157;50.082;18.178;2023-03-12T06:06:52;99024.46;;;-2.50;74.51
76337;BME280;65157;50.082;18.178;2023-03-12T06:09:18;99020.71;;;-2.39;74.55
76337;BME280;65157;50.082;18.178;2023-03-12T06:11:47;99027.02;;;-2.25;74.72
76337;BME280;65157;50.082;18.178;2023-03-12T06:14:16;99035.05;;;-2.09;74.54
76337;BME280;65157;50.082;18.178;2023-03-12T06:16:42;99035.98;;;-1.93;74.39
76337;BME280;65157;50.082;18.178;2023-03-12T06:19:10;99037.59;;;-1.78;74.32
76337;BME280;65157;50.082;18.178;2023-03-12T06:21:36;99038.85;;;-1.62;74.26
76337;BME280;65157;50.082;18.178;2023-03-12T06:24:02;99033.54;;;-1.49;73.17
76337;BME280;65157;50.082;18.178;2023-03-12T06:26:29;99034.58;;;-1.37;73.20
76337;BME280;65157;50.082;18.178;2023-03-12T06:28:55;99030.96;;;-1.27;73.22
76337;BME280;65157;50.082;18.178;2023-03-12T06:31:25;99037.40;;;-1.05;73.18
76337;BME280;65157;50.082;18.178;2023-03-12T06:33:51;99037.40;;;-0.88;72.70
76337;BME280;65157;50.082;18.178;2023-03-12T06:36:18;99038.78;;;-0.77;71.96
76337;BME280;65157;50.082;18.178;2023-03-12T06:38:45;99043.97;;;-0.58;71.96
76337;BME280;65157;50.082;18.178;2023-03-12T06:41:13;99047.06;;;-0.42;71.77
76337;BME280;65157;50.082;18.178;2023-03-12T06:43:45;99046.01;;;-0.31;70.54
76337;BME280;65157;50.082;18.178;2023-03-12T06:46:14;99053.42;;;-0.14;70.19
76337;BME280;65157;50.082;18.178;2023-03-12T06:48:42;99053.22;;;-0.05;69.47
76337;BME280;65157;50.082;18.178;2023-03-12T06:51:09;99052.84;;;0.04;69.95
76337;BME280;65157;50.082;18.178;2023-03-12T06:53:38;99056.09;;;0.18;69.37
76337;BME280;65157;50.082;18.178;2023-03-12T06:56:08;99053.42;;;0.31;68.57
76337;BME280;65157;50.082;18.178;2023-03-12T06:58:34;99050.27;;;0.38;68.32
76337;BME280;65157;50.082;18.178;2023-03-12T07:01:00;99049.87;;;0.49;68.20
76337;BME280;65157;50.082;18.178;2023-03-12T07:03:26;99049.33;;;0.54;68.08
76337;BME280;65157;50.082;18.178;2023-03-12T07:05:54;99051.73;;;0.59;67.28
76337;BME280;65157;50.082;18.178;2023-03-12T07:08:21;99048.05;;;0.66;67.48
76337;BME280;65157;50.082;18.178;2023-03-12T07:10:47;99048.67;;;0.76;66.86
76337;BME280;65157;50.082;18.178;2023-03-12T07:13:14;99045.66;;;0.85;66.37
76337;BME280;65157;50.082;18.178;2023-03-12T07:15:44;99044.86;;;0.98;66.09
76337;BME280;65157;50.082;18.178;2023-03-12T07:18:11;99047.39;;;1.10;65.95
76337;BME280;65157;50.082;18.178;2023-03-12T07:20:39;99042.75;;;1.26;66.52
76337;BME280;65157;50.082;18.178;2023-03-12T07:23:07;99045.02;;;1.45;65.79
76337;BME280;65157;50.082;18.178;2023-03-12T07:25:36;99040.52;;;1.60;65.93
76337;BME280;65157;50.082;18.178;2023-03-12T07:28:02;99042.27;;;1.76;64.11
76337;BME280;65157;50.082;18.178;2023-03-12T07:30:29;99041.14;;;1.84;63.66
76337;BME280;65157;50.082;18.178;2023-03-12T07:32:56;99041.04;;;1.94;63.85
76337;BME280;65157;50.082;18.178;2023-03-12T07:35:23;99041.06;;;2.07;63.33
76337;BME280;65157;50.082;18.178;2023-03-12T07:37:52;99040.23;;;2.18;63.01
76337;BME280;65157;50.082;18.178;2023-03-12T07:40:21;99038.88;;;2.28;62.20
76337;BME280;65157;50.082;18.178;2023-03-12T07:42:49;99037.27;;;2.33;62.43
76337;BME280;65157;50.082;18.178;2023-03-12T07:45:16;99039.05;;;2.43;62.47
76337;BME280;65157;50.082;18.178;2023-03-12T07:47:43;99038.38;;;2.55;61.52
76337;BME280;65157;50.082;18.178;2023-03-12T07:50:14;99035.31;;;2.62;60.70
76337;BME280;65157;50.082;18.178;2023-03-12T07:52:41;99036.38;;;2.72;61.28
76337;BME280;65157;50.082;18.178;2023-03-12T07:55:18;99036.14;;;2.89;61.65
76337;BME280;65157;50.082;18.178;2023-03-12T07:57:47;99039.34;;;3.08;60.89
76337;BME280;65157;50.082;18.178;2023-03-12T08:00:13;99038.50;;;3.17;59.99
76337;BME280;65157;50.082;18.178;2023-03-12T08:02:40;99037.46;;;3.27;60.74
76337;BME280;65157;50.082;18.178;2023-03-12T08:05:07;99035.12;;;3.42;60.61
76337;BME280;65157;50.082;18.178;2023-03-12T08:07:33;99032.58;;;3.57;60.73
76337;BME280;65157;50.082;18.178;2023-03-12T08:10:02;99027.21;;;3.65;60.01
76337;BME280;65157;50.082;18.178;2023-03-12T08:12:28;99029.77;;;3.77;59.85
76337;BME280;65157;50.082;18.178;2023-03-12T08:14:58;99030.17;;;3.83;58.01
76337;BME280;65157;50.082;18.178;2023-03-12T08:17:25;99027.25;;;3.90;57.56
76337;BME280;65157;50.082;18.178;2023-03-12T08:19:51;99026.56;;;3.99;56.51
76337;BME280;65157;50.082;18.178;2023-03-12T08:22:17;99026.30;;;4.04;55.85
76337;BME280;65157;50.082;18.178;2023-03-12T08:24:43;99024.71;;;4.13;54.68
76337;BME280;65157;50.082;18.178;2023-03-12T08:27:10;99030.59;;;4.16;53.83
76337;BME280;65157;50.082;18.178;2023-03-12T08:29:36;99023.25;;;4.17;54.33
76337;BME280;65157;50.082;18.178;2023-03-12T08:32:03;99024.28;;;4.18;54.34
76337;BME280;65157;50.082;18.178;2023-03-12T08:34:30;99018.99;;;4.28;56.56
76337;BME280;65157;50.082;18.178;2023-03-12T08:37:00;99010.80;;;4.36;53.95
76337;BME280;65157;50.082;18.178;2023-03-12T08:39:29;99020.84;;;4.47;52.88
76337;BME280;65157;50.082;18.178;2023-03-12T08:41:56;99019.72;;;4.51;52.25
76337;BME280;65157;50.082;18.178;2023-03-12T08:44:24;99022.92;;;4.56;52.75
76337;BME280;65157;50.082;18.178;2023-03-12T08:46:51;99025.36;;;4.65;52.24
76337;BME280;65157;50.082;18.178;2023-03-12T08:49:19;99019.45;;;4.63;51.74
76337;BME280;65157;50.082;18.178;2023-03-12T08:51:46;99031.60;;;4.67;51.04
76337;BME280;65157;50.082;18.178;2023-03-12T08:54:12;99034.95;;;4.66;51.24
76337;BME280;65157;50.082;18.178;2023-03-12T08:56:39;99034.88;;;4.77;53.14
76337;BME280;65157;50.082;18.178;2023-03-12T08:59:06;99038.83;;;4.88;50.85
76337;BME280;65157;50.082;18.178;2023-03-12T09:01:32;99043.77;;;4.94;52.06
76337;BME280;65157;50.082;18.178;2023-03-12T09:03:58;99041.52;;;5.08;52.51
76337;BME280;65157;50.082;18.178;2023-03-12T09:06:36;99047.05;;;5.25;52.29
76337;BME280;65157;50.082;18.178;2023-03-12T09:09:03;99048.80;;;5.32;50.30
76337;BME280;65157;50.082;18.178;2023-03-12T09:11:32;99049.92;;;5.36;50.64
76337;BME280;65157;50.082;18.178;2023-03-12T09:14:00;99048.73;;;5.42;50.15
76337;BME280;65157;50.082;18.178;2023-03-12T09:16:26;99045.79;;;5.55;51.08
76337;BME280;65157;50.082;18.178;2023-03-12T09:18:53;99046.29;;;5.69;50.64
76337;BME280;65157;50.082;18.178;2023-03-12T09:21:20;99041.79;;;5.81;50.93
76337;BME280;65157;50.082;18.178;2023-03-12T09:23:46;99044.61;;;6.01;49.89
76337;BME280;65157;50.082;18.178;2023-03-12T09:26:13;99045.11;;;6.14;49.45
76337;BME280;65157;50.082;18.178;2023-03-12T09:28:39;99031.95;;;6.15;49.67
76337;BME280;65157;50.082;18.178;2023-03-12T09:31:05;99036.95;;;6.37;50.73
76337;BME280;65157;50.082;18.178;2023-03-12T09:33:34;99038.71;;;6.60;49.71
76337;BME280;65157;50.082;18.178;2023-03-12T09:36:01;99033.08;;;6.78;49.96
76337;BME280;65157;50.082;18.178;2023-03-12T09:38:31;99038.31;;;6.96;49.14
76337;BME280;65157;50.082;18.178;2023-03-12T09:40:58;99033.52;;;7.09;48.82
76337;BME280;65157;50.082;18.178;2023-03-12T09:43:41;99037.52;;;7.26;48.70
76337;BME280;65157;50.082;18.178;2023-03-12T09:46:37;99029.59;;;7.32;47.03
76337;BME280;65157;50.082;18.178;2023-03-12T09:49:15;99032.98;;;7.47;48.45
76337;BME280;65157;50.082;18.178;2023-03-12T09:51:46;99032.88;;;7.66;48.77
76337;BME280;65157;50.082;18.178;2023-03-12T09:54:37;99033.60;;;7.85;48.27
76337;BME280;65157;50.082;18.178;2023-03-12T09:57:22;99032.08;;;7.94;45.46
76337;BME280;65157;50.082;18.178;2023-03-12T09:59:50;99026.85;;;7.97;46.40
76337;BME280;65157;50.082;18.178;2023-03-12T10:05:07;99026.80;;;7.79;45.76
76337;BME280;65157;50.082;18.178;2023-03-12T10:07:41;99008.17;;;7.69;45.11
76337;BME280;65157;50.082;18.178;2023-03-12T10:12:53;99023.38;;;7.60;43.60
76337;BME280;65157;50.082;18.178;2023-03-12T10:15:52;99022.66;;;7.46;45.45
76337;BME280;65157;50.082;18.178;2023-03-12T10:18:30;99021.27;;;7.46;43.51
76337;BME280;65157;50.082;18.178;2023-03-12T10:21:19;99022.10;;;7.36;44.84
76337;BME280;65157;50.082;18.178;2023-03-12T10:24:12;99021.30;;;7.55;46.14
76337;BME280;65157;50.082;18.178;2023-03-12T10:26:45;99026.86;;;7.72;44.49
76337;BME280;65157;50.082;18.178;2023-03-12T10:29:34;99023.98;;;7.79;45.03
76337;BME280;65157;50.082;18.178;2023-03-12T10:34:51;99020.09;;;8.05;44.92
76337;BME280;65157;50.082;18.178;2023-03-12T10:37:23;99018.30;;;8.20;44.23
76337;BME280;65157;50.082;18.178;2023-03-12T10:39:55;99020.10;;;8.34;44.11
76337;BME280;65157;50.082;18.178;2023-03-12T10:42:27;99015.42;;;8.55;45.67
76337;BME280;65157;50.082;18.178;2023-03-12T10:45:05;99011.83;;;8.85;45.35
76337;BME280;65157;50.082;18.178;2023-03-12T10:47:42;99016.61;;;8.88;42.18
76337;BME280;65157;50.082;18.178;2023-03-12T10:50:19;99016.25;;;8.89;42.23
76337;BME280;65157;50.082;18.178;2023-03-12T10:52:48;99008.48;;;8.81;41.22
76337;BME280;65157;50.082;18.178;2023-03-12T10:55:26;99015.84;;;8.77;42.80
76337;BME280;65157;50.082;18.178;2023-03-12T10:57:56;99013.70;;;8.86;43.29
76337;BME280;65157;50.082;18.178;2023-03-12T11:00:23;98984.20;;;8.89;43.89
76337;BME280;65157;50.082;18.178;2023-03-12T11:03:04;99008.13;;;9.29;42.24
76337;BME280;65157;50.082;18.178;2023-03-12T11:05:48;99008.39;;;9.40;41.86
76337;BME280;65157;50.082;18.178;2023-03-12T11:08:35;99008.45;;;9.34;41.14
76337;BME280;65157;50.082;18.178;2023-03-12T11:11:03;99008.16;;;9.28;39.58
76337;BME280;65157;50.082;18.178;2023-03-12T11:13:35;99006.75;;;9.20;41.14
76337;BME280;65157;50.082;18.178;2023-03-12T11:16:25;99002.43;;;9.30;42.06
76337;BME280;65157;50.082;18.178;2023-03-12T11:19:02;99003.25;;;9.23;39.47
76337;BME280;65157;50.082;18.178;2023-03-12T11:21:38;99003.39;;;8.98;41.21
76337;BME280;65157;50.082;18.178;2023-03-12T11:24:12;99007.13;;;8.92;41.36
76337;BME280;65157;50.082;18.178;2023-03-12T11:26:46;99003.52;;;8.81;41.03
76337;BME280;65157;50.082;18.178;2023-03-12T11:29:27;99009.83;;;8.77;41.68
76337;BME280;65157;50.082;18.178;2023-03-12T11:32:17;99013.03;;;8.68;41.50
76337;BME280;65157;50.082;18.178;2023-03-12T11:34:43;99015.36;;;8.62;41.98
76337;BME280;65157;50.082;18.178;2023-03-12T11:48:27;99006.30;;;8.86;43.10
76337;BME280;65157;50.082;18.178;2023-03-12T11:51:16;99006.09;;;9.22;40.96
76337;BME280;65157;50.082;18.178;2023-03-12T11:56:38;99000.08;;;9.61;41.37
76337;BME280;65157;50.082;18.178;2023-03-12T12:02:29;98999.98;;;9.88;40.42
76337;BME280;65157;50.082;18.178;2023-03-12T12:10:24;98994.98;;;9.69;39.23
76337;BME280;65157;50.082;18.178;2023-03-12T12:27:52;98971.69;;;9.86;38.39
76337;BME280;65157;50.082;18.178;2023-03-12T12:30:34;98972.16;;;9.71;37.51
76337;BME280;65157;50.082;18.178;2023-03-12T12:33:13;98971.38;;;9.60;37.26
76337;BME280;65157;50.082;18.178;2023-03-12T12:35:41;98973.16;;;9.52;38.59
76337;BME280;65157;50.082;18.178;2023-03-12T12:38:22;98971.93;;;9.52;37.76
76337;BME280;65157;50.082;18.178;2023-03-12T12:40:53;98964.41;;;9.46;38.05
76337;BME280;65157;50.082;18.178;2023-03-12T12:43:30;98964.11;;;9.49;38.10
76337;BME280;65157;50.082;18.178;2023-03-12T12:46:07;98965.98;;;9.39;37.00
76337;BME280;65157;50.082;18.178;2023-03-12T12:48:37;98967.31;;;9.28;38.00
76337;BME280;65157;50.082;18.178;2023-03-12T12:51:06;98960.39;;;9.25;37.46
76337;BME280;65157;50.082;18.178;2023-03-12T12:53:41;98960.26;;;9.24;37.67
76337;BME280;65157;50.082;18.178;2023-03-12T12:56:33;98965.48;;;9.29;37.81
76337;BME280;65157;50.082;18.178;2023-03-12T13:01:56;98967.55;;;9.35;38.87
76337;BME280;65157;50.082;18.178;2023-03-12T13:04:32;98963.86;;;9.38;39.41
76337;BME280;65157;50.082;18.178;2023-03-12T13:12:12;98967.78;;;9.42;39.35
76337;BME280;65157;50.082;18.178;2023-03-12T13:14:42;98963.91;;;9.38;39.09
76337;BME280;65157;50.082;18.178;2023-03-12T13:17:27;98957.60;;;9.37;39.31
76337;BME280;65157;50.082;18.178;2023-03-12T13:20:04;98956.67;;;9.22;37.53
76337;BME280;65157;50.082;18.178;2023-03-12T13:25:09;98965.96;;;9.05;39.10
76337;BME280;65157;50.082;18.178;2023-03-12T13:27:40;98963.86;;;8.96;37.76
76337;BME280;65157;50.082;18.178;2023-03-12T13:43:12;98974.08;;;9.26;38.51
76337;BME280;65157;50.082;18.178;2023-03-12T13:46:00;98980.73;;;9.09;38.51
76337;BME280;65157;50.082;18.178;2023-03-12T13:48:33;98987.25;;;8.97;38.37
76337;BME280;65157;50.082;18.178;2023-03-12T13:51:20;98984.15;;;8.81;38.24
76337;BME280;65157;50.082;18.178;2023-03-12T13:53:55;98977.71;;;8.62;37.87
76337;BME280;65157;50.082;18.178;2023-03-12T13:56:31;98984.85;;;8.50;37.52
76337;BME280;65157;50.082;18.178;2023-03-12T13:59:15;98984.70;;;8.41;39.14
76337;BME280;65157;50.082;18.178;2023-03-12T14:01:48;98980.34;;;8.39;39.07
76337;BME280;65157;50.082;18.178;2023-03-12T14:04:20;98982.66;;;8.47;39.20
76337;BME280;65157;50.082;18.178;2023-03-12T14:10:30;98965.37;;;8.40;37.61
76337;BME280;65157;50.082;18.178;2023-03-12T14:16:16;98988.11;;;8.38;37.49
76337;BME280;65157;50.082;18.178;2023-03-12T14:18:49;98985.09;;;8.35;38.35
76337;BME280;65157;50.082;18.178;2023-03-12T14:21:17;98984.27;;;8.33;37.92
76337;BME280;65157;50.082;18.178;2023-03-12T14:23:56;98990.88;;;8.30;38.70
76337;BME280;65157;50.082;18.178;2023-03-12T14:26:27;98988.92;;;8.16;38.38